Unser Flugplatzteam

Segelflugzeugschlepp am Flugplatz Konstanz

Unsere freundlichen Mitarbeiter stehen Ihnen gerne mit Rat und Tat zur Seite:

Robert Leitner

Flugleiter, Landesbeauftragter für Luftaufsicht am Verkehrlandeplatz Konstanz

Minky Schweizer

Flugleiterin

Live am Platz

Die Bilder unserer Webcams werden alle 5 Minuten aktualisiert.

Sonnenaufgang:

03:23 UTC / 05:23 Lokal

Sonnenuntergang:

19:27 UTC / 21:27 Lokal

METAR (22.06.2021 10:20 UTC):

EDNY 221020Z 26008KT 230V320 9999 BKN034 BKN043 OVC050 19/15 Q1013
VFR

TAF (22.06.2021 05:00 UTC):

TAF EDNY 220500Z 2206/2306 VRB03KT 9999 SCT040 BECMG 2208/2210 25005KT PROB30 TEMPO 2210/2220 24015G30KT 4500 TSRA BKN025CB BECMG 2217/2219 VRB03KT

Alle Angaben unverbindlich und ohne Gewähr. Zeiten genähert.

Für den Verkehrslandeplatz Konstanz werden keine offiziellen Wetterinformationen ausgegeben. Daher werden zur Orientierung Daten des nahegelegenen Flughafens Friedrichshafen dargestellt.

Das Landeentgelt kann bei uns auch mit aerops bezahlt werden. Die App für's Handy ist kostenfrei erhältlich.